createdAt,value
2018-08-03T00:00:28.734Z,6.60
2018-08-03T00:01:32.772Z,6.90
2018-08-03T00:02:36.928Z,6.80
2018-08-03T00:03:40.983Z,7.00
2018-08-03T00:04:45.089Z,7.13
2018-08-03T00:05:49.150Z,7.10
2018-08-03T00:06:53.255Z,6.67
2018-08-03T00:07:57.398Z,6.30
2018-08-03T00:09:01.536Z,7.12
2018-08-03T00:10:06.866Z,6.90
2018-08-03T00:11:11.044Z,6.58
2018-08-03T00:12:15.137Z,6.57
2018-08-03T00:13:19.218Z,6.83
2018-08-03T00:14:23.272Z,7.13
2018-08-03T00:15:27.351Z,7.07
2018-08-03T00:16:31.434Z,6.80
2018-08-03T00:17:35.537Z,7.05
2018-08-03T00:18:39.598Z,7.10
2018-08-03T00:19:43.758Z,6.33
2018-08-03T00:20:47.878Z,6.85
2018-08-03T00:21:51.992Z,7.10
2018-08-03T00:22:56.127Z,7.30
2018-08-03T00:24:00.377Z,7.00
2018-08-03T00:25:05.208Z,7.00
2018-08-03T00:26:09.293Z,6.43
2018-08-03T00:27:13.297Z,6.67
2018-08-03T00:28:17.318Z,6.90
2018-08-03T00:29:21.410Z,6.10
2018-08-03T00:30:25.461Z,6.23
2018-08-03T00:31:29.591Z,7.22
2018-08-03T00:32:33.608Z,6.40
2018-08-03T00:33:37.739Z,6.70
2018-08-03T00:34:41.871Z,6.80
2018-08-03T00:35:46.036Z,6.12
2018-08-03T00:36:50.139Z,7.13
2018-08-03T00:37:53.985Z,6.30
2018-08-03T00:38:57.891Z,6.67
2018-08-03T00:40:01.930Z,6.30
2018-08-03T00:41:06.091Z,6.80
2018-08-03T00:42:10.237Z,6.08
2018-08-03T00:43:14.318Z,6.70
2018-08-03T00:44:18.383Z,5.92
2018-08-03T00:45:22.502Z,6.35
2018-08-03T00:46:26.611Z,6.37
2018-08-03T00:47:30.697Z,6.60
2018-08-03T00:48:34.769Z,6.33
2018-08-03T00:49:38.804Z,6.27
2018-08-03T00:50:42.932Z,6.12
2018-08-03T00:51:47.013Z,7.53
2018-08-03T00:52:51.228Z,6.37
2018-08-03T00:53:55.327Z,6.30
2018-08-03T00:55:00.034Z,6.33
2018-08-03T00:56:04.137Z,6.45
2018-08-03T00:57:08.259Z,5.92
2018-08-03T00:58:12.362Z,6.20
2018-08-03T00:59:16.401Z,6.03
2018-08-03T01:00:20.638Z,6.67
2018-08-03T01:01:24.801Z,6.08
2018-08-03T01:02:28.928Z,6.60
2018-08-03T01:03:33.100Z,6.70
2018-08-03T01:04:37.194Z,5.85
2018-08-03T01:05:41.382Z,7.85
2018-08-03T01:06:45.478Z,6.35
2018-08-03T01:07:49.496Z,6.15
2018-08-03T01:08:53.543Z,6.78
2018-08-03T01:09:57.657Z,7.17
2018-08-03T01:11:01.696Z,6.92
2018-08-03T01:12:05.750Z,7.17
2018-08-03T01:13:09.824Z,6.25
2018-08-03T01:14:13.901Z,6.60
2018-08-03T01:15:18.015Z,6.67
2018-08-03T01:16:22.174Z,6.35
2018-08-03T01:17:26.213Z,6.17
2018-08-03T01:18:30.292Z,6.00
2018-08-03T01:19:34.421Z,7.00
2018-08-03T01:20:38.484Z,5.85
2018-08-03T01:21:44.000Z,6.35
2018-08-03T01:22:48.099Z,5.92
2018-08-03T01:23:52.165Z,6.22
2018-08-03T01:24:56.223Z,6.40
2018-08-03T01:26:00.235Z,6.75
2018-08-03T01:27:10.334Z,6.50
2018-08-03T01:28:14.490Z,6.65
2018-08-03T01:29:18.540Z,6.12
2018-08-03T01:30:22.605Z,7.03
2018-08-03T01:31:26.727Z,6.90
2018-08-03T01:32:30.746Z,6.58
2018-08-03T01:33:34.847Z,7.45
2018-08-03T01:34:38.978Z,6.65
2018-08-03T01:35:43.012Z,6.65
2018-08-03T01:36:47.140Z,6.65
2018-08-03T01:37:51.256Z,7.10
2018-08-03T01:38:55.321Z,7.08
2018-08-03T01:39:59.235Z,6.47
2018-08-03T01:41:02.903Z,6.75
2018-08-03T01:42:06.941Z,6.50
2018-08-03T01:43:11.018Z,6.37
2018-08-03T01:44:15.087Z,6.92
2018-08-03T01:45:19.099Z,7.25
2018-08-03T01:46:23.202Z,7.83
2018-08-03T01:47:27.223Z,6.85
2018-08-03T01:48:31.341Z,7.78
2018-08-03T01:49:35.171Z,7.30
2018-08-03T01:50:39.145Z,7.22
2018-08-03T01:51:43.324Z,7.28
2018-08-03T01:52:47.425Z,6.97
2018-08-03T01:53:51.220Z,7.10
2018-08-03T01:54:55.264Z,6.85
2018-08-03T01:55:59.528Z,7.58
2018-08-03T01:57:03.571Z,6.65
2018-08-03T01:58:07.678Z,7.83
2018-08-03T01:59:11.771Z,6.95
2018-08-03T02:00:15.838Z,7.72
2018-08-03T02:01:19.977Z,7.42
2018-08-03T02:02:24.079Z,8.40
2018-08-03T02:03:28.131Z,8.08
2018-08-03T02:04:32.283Z,7.03
2018-08-03T02:05:36.347Z,7.70
2018-08-03T02:06:40.452Z,8.23
2018-08-03T02:07:44.622Z,7.85
2018-08-03T02:08:48.730Z,7.35
2018-08-03T02:09:53.029Z,8.03
2018-08-03T02:10:57.146Z,8.40
2018-08-03T02:12:01.210Z,8.05
2018-08-03T02:13:05.278Z,8.45
2018-08-03T02:14:09.323Z,7.83
2018-08-03T02:15:13.504Z,8.20
2018-08-03T02:16:17.653Z,8.15
2018-08-03T02:17:21.748Z,7.40
2018-08-03T02:18:25.822Z,7.62
2018-08-03T02:19:29.854Z,8.00
2018-08-03T02:20:34.052Z,7.87
2018-08-03T02:21:38.110Z,8.00
2018-08-03T02:22:42.219Z,7.90
2018-08-03T02:23:46.292Z,8.10
2018-08-03T02:24:50.376Z,7.97
2018-08-03T02:25:54.479Z,7.90
2018-08-03T02:26:58.593Z,8.33
2018-08-03T02:28:02.732Z,8.20
2018-08-03T02:29:06.735Z,7.62
2018-08-03T02:30:10.815Z,7.55
2018-08-03T02:31:14.936Z,7.42
2018-08-03T02:32:19.068Z,7.62
2018-08-03T02:33:22.918Z,7.65
2018-08-03T02:34:26.839Z,7.78
2018-08-03T02:35:30.940Z,7.90
2018-08-03T02:36:34.991Z,7.53
2018-08-03T02:37:39.152Z,7.53
2018-08-03T02:38:43.315Z,6.92
2018-08-03T02:39:47.656Z,8.08
2018-08-03T02:40:51.735Z,7.05
2018-08-03T02:41:55.800Z,7.87
2018-08-03T02:42:59.895Z,7.67
2018-08-03T02:44:04.068Z,7.70
2018-08-03T02:45:08.270Z,8.63
2018-08-03T02:46:12.375Z,8.20
2018-08-03T02:47:16.439Z,7.12
2018-08-03T02:48:20.596Z,6.85
2018-08-03T02:49:24.664Z,6.90
2018-08-03T02:50:28.695Z,7.28
2018-08-03T02:51:32.769Z,7.17
2018-08-03T02:52:36.809Z,6.72
2018-08-03T02:53:40.809Z,7.50
2018-08-03T02:54:44.903Z,7.08
2018-08-03T02:55:48.906Z,7.53
2018-08-03T02:56:52.973Z,7.20
2018-08-03T02:57:57.046Z,6.78
2018-08-03T02:59:01.153Z,7.35
2018-08-03T03:00:05.273Z,7.42
2018-08-03T03:01:09.604Z,6.92
2018-08-03T03:02:13.760Z,7.40
2018-08-03T03:03:17.780Z,6.58
2018-08-03T03:04:21.822Z,7.50
2018-08-03T03:05:25.873Z,7.17
2018-08-03T03:06:29.975Z,7.85
2018-08-03T03:07:34.012Z,7.05
2018-08-03T03:08:38.012Z,6.95
2018-08-03T03:09:42.124Z,7.60
2018-08-03T03:10:46.165Z,7.62
2018-08-03T03:11:50.304Z,7.25
2018-08-03T03:12:54.385Z,8.08
2018-08-03T03:13:58.390Z,8.13
2018-08-03T03:15:02.432Z,8.43
2018-08-03T03:17:20.498Z,8.05
2018-08-03T03:18:24.598Z,7.97
2018-08-03T03:19:28.672Z,7.95
2018-08-03T03:20:33.010Z,7.22
2018-08-03T03:21:37.166Z,7.42
2018-08-03T03:22:41.215Z,7.80
2018-08-03T03:23:45.423Z,6.90
2018-08-03T03:24:49.542Z,7.08
2018-08-03T03:25:53.620Z,7.17
2018-08-03T03:26:57.640Z,7.58
2018-08-03T03:28:01.782Z,6.92
2018-08-03T03:29:05.868Z,7.03
2018-08-03T03:30:09.981Z,7.47
2018-08-03T03:31:14.010Z,6.97
2018-08-03T03:32:18.221Z,7.28
2018-08-03T03:33:22.380Z,7.60
2018-08-03T03:34:26.203Z,6.97
2018-08-03T03:35:30.181Z,7.03
2018-08-03T03:36:34.395Z,7.20
2018-08-03T03:37:38.540Z,6.70
2018-08-03T03:38:42.651Z,6.87
2018-08-03T03:39:46.721Z,7.47
2018-08-03T03:40:50.751Z,7.65
2018-08-03T03:41:54.839Z,7.42
2018-08-03T03:42:58.988Z,7.40
2018-08-03T03:44:02.865Z,7.25
2018-08-03T03:45:06.793Z,7.40
2018-08-03T03:46:10.839Z,7.83
2018-08-03T03:47:14.839Z,7.60
2018-08-03T03:48:18.951Z,7.20
2018-08-03T03:49:23.030Z,7.60
2018-08-03T03:50:27.167Z,7.20
2018-08-03T03:51:31.307Z,7.03
2018-08-03T03:52:35.591Z,7.47
2018-08-03T03:53:39.381Z,7.42
2018-08-03T03:54:43.334Z,7.40
2018-08-03T03:55:47.432Z,7.45
2018-08-03T03:56:51.491Z,7.20
2018-08-03T03:57:55.524Z,7.60
2018-08-03T03:58:59.615Z,7.55
2018-08-03T04:00:03.868Z,8.13
2018-08-03T04:01:08.001Z,7.40
2018-08-03T04:02:12.045Z,7.90
2018-08-03T04:03:16.147Z,7.65
2018-08-03T04:04:20.243Z,7.25
2018-08-03T04:05:24.275Z,7.40
2018-08-03T04:06:28.395Z,6.92
2018-08-03T04:07:32.428Z,7.03
2018-08-03T04:08:36.514Z,8.05
2018-08-03T04:09:40.586Z,7.45
2018-08-03T04:10:44.680Z,7.15
2018-08-03T04:11:48.794Z,6.92
2018-08-03T04:12:52.983Z,7.25
2018-08-03T04:13:58.067Z,7.30
2018-08-03T04:15:02.625Z,7.72
2018-08-03T04:16:06.826Z,7.65
2018-08-03T04:17:10.978Z,7.10
2018-08-03T04:18:18.747Z,7.22
2018-08-03T04:19:22.910Z,7.30
2018-08-03T04:20:26.979Z,7.83
2018-08-03T04:21:31.084Z,7.47
2018-08-03T04:22:35.316Z,7.58
2018-08-03T04:23:39.425Z,7.80
2018-08-03T04:24:43.529Z,7.67
2018-08-03T04:25:47.604Z,7.70
2018-08-03T04:26:51.392Z,7.78
2018-08-03T04:27:55.293Z,8.30
2018-08-03T04:28:59.363Z,7.97
2018-08-03T04:30:04.002Z,7.60
2018-08-03T04:31:07.777Z,7.17
2018-08-03T04:32:11.710Z,7.65
2018-08-03T04:33:15.595Z,7.20
2018-08-03T04:34:19.557Z,7.37
2018-08-03T04:35:24.050Z,7.58
2018-08-03T04:36:28.142Z,7.17
2018-08-03T04:37:32.223Z,7.58
2018-08-03T04:38:36.290Z,7.85
2018-08-03T04:39:40.053Z,7.12
2018-08-03T04:40:44.020Z,7.17
2018-08-03T04:41:48.095Z,7.17
2018-08-03T04:42:52.195Z,7.42
2018-08-03T04:43:55.996Z,7.60
2018-08-03T04:44:59.920Z,7.83
2018-08-03T04:46:04.073Z,8.13
2018-08-03T04:47:08.245Z,7.97
2018-08-03T04:48:12.288Z,8.33
2018-08-03T04:49:16.389Z,7.40
2018-08-03T04:50:20.685Z,7.67
2018-08-03T04:51:24.733Z,7.67
2018-08-03T04:52:28.728Z,8.13
2018-08-03T04:53:32.848Z,8.08
2018-08-03T04:54:37.011Z,7.65
2018-08-03T04:55:41.101Z,7.78
2018-08-03T04:56:45.143Z,7.72
2018-08-03T04:57:49.217Z,7.97
2018-08-03T04:58:53.228Z,7.65
2018-08-03T04:59:57.319Z,7.20
2018-08-03T05:01:01.422Z,7.92
2018-08-03T05:02:05.598Z,7.80
2018-08-03T05:03:09.777Z,8.20
2018-08-03T05:04:13.871Z,8.10
2018-08-03T05:05:18.125Z,7.47
2018-08-03T05:06:22.213Z,8.40
2018-08-03T05:07:26.351Z,7.70
2018-08-03T05:08:31.109Z,7.30
2018-08-03T05:09:35.225Z,7.53
2018-08-03T05:10:39.282Z,7.85
2018-08-03T05:11:43.373Z,7.97
2018-08-03T05:12:47.419Z,8.05
2018-08-03T05:13:51.484Z,7.65
2018-08-03T05:14:55.622Z,7.72
2018-08-03T05:15:59.738Z,8.10
2018-08-03T05:17:03.881Z,8.28
2018-08-03T05:18:08.263Z,8.48
2018-08-03T05:19:12.344Z,7.78
2018-08-03T05:20:16.397Z,7.95
2018-08-03T05:21:20.496Z,8.30
2018-08-03T05:22:24.681Z,7.92
2018-08-03T05:23:28.785Z,8.50
2018-08-03T05:24:32.893Z,8.05
2018-08-03T05:25:36.929Z,7.83
2018-08-03T05:26:41.021Z,7.70
2018-08-03T05:27:45.076Z,7.85
2018-08-03T05:28:49.099Z,8.10
2018-08-03T05:29:53.182Z,8.38
2018-08-03T05:30:57.323Z,8.15
2018-08-03T05:32:01.336Z,7.95
2018-08-03T05:33:05.343Z,7.67
2018-08-03T05:34:09.380Z,9.73
2018-08-03T05:35:13.765Z,9.15
2018-08-03T05:36:18.013Z,8.65
2018-08-03T05:37:22.010Z,8.60
2018-08-03T05:38:26.217Z,9.80
2018-08-03T05:39:30.225Z,8.40
2018-08-03T05:40:34.374Z,8.48
2018-08-03T05:41:39.035Z,8.80
2018-08-03T05:42:43.117Z,8.60
2018-08-03T05:43:47.261Z,8.70
2018-08-03T05:44:51.329Z,8.60
2018-08-03T05:45:55.378Z,8.23
2018-08-03T05:46:59.481Z,8.78
2018-08-03T05:48:03.643Z,8.93
2018-08-03T05:49:07.690Z,8.17
2018-08-03T05:50:11.869Z,13.43
2018-08-03T05:51:15.887Z,9.40
2018-08-03T05:52:19.995Z,9.50
2018-08-03T05:53:24.074Z,9.20
2018-08-03T05:54:28.125Z,8.70
2018-08-03T05:55:32.281Z,9.88
2018-08-03T05:56:36.408Z,8.30
2018-08-03T05:57:40.467Z,8.30
2018-08-03T05:58:44.597Z,8.98
2018-08-03T05:59:48.749Z,9.17
2018-08-03T06:00:53.718Z,8.73
2018-08-03T06:01:57.877Z,8.83
2018-08-03T06:03:02.040Z,10.73
2018-08-03T06:04:06.193Z,9.47
2018-08-03T06:05:10.295Z,9.63
2018-08-03T06:06:14.324Z,8.57
2018-08-03T06:07:18.400Z,9.33
2018-08-03T06:08:22.556Z,8.60
2018-08-03T06:09:26.650Z,9.17
2018-08-03T06:10:30.716Z,9.40
2018-08-03T06:11:34.865Z,9.95
2018-08-03T06:12:38.976Z,11.03
2018-08-03T06:13:43.100Z,9.37
2018-08-03T06:14:47.261Z,11.03
2018-08-03T06:15:51.391Z,12.70
2018-08-03T06:16:55.441Z,11.20
2018-08-03T06:17:59.544Z,12.97
2018-08-03T06:19:03.784Z,12.27
2018-08-03T06:20:09.092Z,15.35
2018-08-03T06:21:13.133Z,11.97
2018-08-03T06:22:17.311Z,9.73
2018-08-03T06:23:21.423Z,9.65
2018-08-03T06:24:25.588Z,9.20
2018-08-03T06:25:29.651Z,10.53
2018-08-03T06:26:33.755Z,8.90
2018-08-03T06:27:38.034Z,9.30
2018-08-03T06:28:42.203Z,9.07
2018-08-03T06:29:46.558Z,9.40
2018-08-03T06:30:50.591Z,9.43
2018-08-03T06:31:54.703Z,8.97
2018-08-03T06:32:58.795Z,10.30
2018-08-03T06:34:02.955Z,9.73
2018-08-03T06:35:07.126Z,9.20
2018-08-03T06:36:11.258Z,9.80
2018-08-03T06:37:15.304Z,8.80
2018-08-03T06:38:19.099Z,8.73
2018-08-03T06:39:23.057Z,8.97
2018-08-03T06:40:27.217Z,10.37
2018-08-03T06:41:31.260Z,8.83
2018-08-03T06:42:35.405Z,9.40
2018-08-03T06:43:39.207Z,8.90
2018-08-03T06:44:43.270Z,9.33
2018-08-03T06:45:47.394Z,8.80
2018-08-03T06:46:51.618Z,8.83
2018-08-03T06:47:55.656Z,8.07
2018-08-03T06:48:59.840Z,8.77
2018-08-03T06:50:04.382Z,8.70
2018-08-03T06:51:08.464Z,8.50
2018-08-03T06:52:12.606Z,8.53
2018-08-03T06:53:16.708Z,8.60
2018-08-03T06:54:20.814Z,8.60
2018-08-03T06:55:24.797Z,9.33
2018-08-03T06:56:29.177Z,11.10
2018-08-03T06:57:33.233Z,8.67
2018-08-03T06:58:37.239Z,8.50
2018-08-03T06:59:41.325Z,9.17
2018-08-03T07:00:45.390Z,8.27
2018-08-03T07:01:49.458Z,8.33
2018-08-03T07:02:53.624Z,8.73
2018-08-03T07:03:57.580Z,8.40
2018-08-03T07:05:01.597Z,8.73
2018-08-03T07:06:05.681Z,8.20
2018-08-03T07:07:09.710Z,8.90
2018-08-03T07:08:13.951Z,9.23
2018-08-03T07:09:18.038Z,8.87
2018-08-03T07:10:22.278Z,11.20
2018-08-03T07:11:26.362Z,9.87
2018-08-03T07:12:30.506Z,10.93
2018-08-03T07:13:34.592Z,8.60
2018-08-03T07:14:38.689Z,9.00
2018-08-03T07:15:42.847Z,9.73
2018-08-03T07:16:46.909Z,9.17
2018-08-03T07:17:51.048Z,9.87
2018-08-03T07:18:55.122Z,9.37
2018-08-03T07:19:59.453Z,9.27
2018-08-03T07:21:03.175Z,9.20
2018-08-03T07:22:07.150Z,10.47
2018-08-03T07:23:11.287Z,9.10
2018-08-03T07:24:15.563Z,10.50
2018-08-03T07:25:19.605Z,9.03
2018-08-03T07:26:23.686Z,9.03
2018-08-03T07:27:27.819Z,8.77
2018-08-03T07:28:31.848Z,9.50
2018-08-03T07:29:35.982Z,9.10
2018-08-03T07:30:39.881Z,12.30
2018-08-03T07:31:43.876Z,9.53
2018-08-03T07:32:47.907Z,9.33
2018-08-03T07:33:52.004Z,8.73
2018-08-03T07:34:55.736Z,9.53
2018-08-03T07:35:59.870Z,9.30
2018-08-03T07:37:03.941Z,9.07
2018-08-03T07:38:08.107Z,8.87
2018-08-03T07:39:12.148Z,8.47
2018-08-03T07:40:16.257Z,9.20
2018-08-03T07:41:20.336Z,9.50
2018-08-03T07:42:24.734Z,10.00
2018-08-03T07:43:28.848Z,8.87
2018-08-03T07:44:32.961Z,9.43
2018-08-03T07:45:37.007Z,8.60
2018-08-03T07:46:41.100Z,8.23
2018-08-03T07:47:45.138Z,8.83
2018-08-03T07:48:49.259Z,10.57
2018-08-03T07:49:53.377Z,10.00
2018-08-03T07:50:57.451Z,9.70
2018-08-03T07:52:01.547Z,8.73
2018-08-03T07:53:05.693Z,9.57
2018-08-03T07:54:09.741Z,9.23
2018-08-03T07:55:13.840Z,9.57
2018-08-03T07:56:17.975Z,8.67
2018-08-03T07:57:22.143Z,9.30
2018-08-03T07:58:26.203Z,9.30
2018-08-03T07:59:30.299Z,8.70
2018-08-03T08:00:34.393Z,10.30
2018-08-03T08:01:38.494Z,8.73
2018-08-03T08:02:42.500Z,9.17
2018-08-03T08:03:46.587Z,9.70
2018-08-03T08:04:50.640Z,9.80
2018-08-03T08:05:54.743Z,9.93
2018-08-03T08:06:58.787Z,9.30
2018-08-03T08:08:02.837Z,10.23
2018-08-03T08:09:09.299Z,9.03
2018-08-03T08:10:13.397Z,9.17
2018-08-03T08:11:17.495Z,9.47
2018-08-03T08:12:21.615Z,9.37
2018-08-03T08:13:25.687Z,8.60
2018-08-03T08:14:29.773Z,8.80
2018-08-03T08:15:33.958Z,8.60
2018-08-03T08:16:37.945Z,8.20
2018-08-03T08:17:42.014Z,8.00
2018-08-03T08:18:46.085Z,9.93
2018-08-03T08:19:50.195Z,8.50
2018-08-03T08:20:54.248Z,8.70
2018-08-03T08:21:58.341Z,8.67
2018-08-03T08:23:02.537Z,9.37
2018-08-03T08:24:06.752Z,8.93
2018-08-03T08:25:10.787Z,9.33
2018-08-03T08:26:14.922Z,9.23
2018-08-03T08:27:19.160Z,8.17
2018-08-03T08:28:23.309Z,8.87
2018-08-03T08:29:27.363Z,9.00
2018-08-03T08:30:31.476Z,9.07
2018-08-03T08:31:35.673Z,9.10
2018-08-03T08:32:39.753Z,8.40
2018-08-03T08:33:44.012Z,9.57
2018-08-03T08:34:47.760Z,8.93
2018-08-03T08:35:51.777Z,10.10
2018-08-03T08:36:55.976Z,9.47
2018-08-03T08:38:00.503Z,8.70
2018-08-03T08:39:07.438Z,8.50
2018-08-03T08:40:11.488Z,9.33
2018-08-03T08:41:15.604Z,9.87
2018-08-03T08:42:19.720Z,10.30
2018-08-03T08:43:23.773Z,9.20
2018-08-03T08:44:27.889Z,10.00
2018-08-03T08:45:32.110Z,10.10
2018-08-03T08:46:36.294Z,9.50
2018-08-03T08:47:40.409Z,9.30
2018-08-03T08:48:44.520Z,10.53
2018-08-03T08:49:48.592Z,9.70
2018-08-03T08:50:52.777Z,10.27
2018-08-03T08:51:56.800Z,10.03
2018-08-03T08:53:00.891Z,10.63
2018-08-03T08:54:04.901Z,10.13
2018-08-03T08:55:09.046Z,10.07
2018-08-03T08:56:13.448Z,9.87
2018-08-03T08:57:17.453Z,9.77
2018-08-03T08:58:21.589Z,9.77
2018-08-03T08:59:25.646Z,9.30
2018-08-03T09:00:29.697Z,10.50
2018-08-03T09:01:33.784Z,9.60
2018-08-03T09:02:37.877Z,10.57
2018-08-03T09:03:41.954Z,10.53
2018-08-03T09:04:46.223Z,10.63
2018-08-03T09:05:50.359Z,10.80
2018-08-03T09:06:54.450Z,10.43
2018-08-03T09:07:58.444Z,10.20
2018-08-03T09:09:02.516Z,9.20
2018-08-03T09:10:06.654Z,9.87
2018-08-03T09:11:10.782Z,10.40
2018-08-03T09:12:14.910Z,10.03
2018-08-03T09:13:18.974Z,10.10
2018-08-03T09:14:23.028Z,10.10
2018-08-03T09:15:27.153Z,11.13
2018-08-03T09:16:31.257Z,9.90
2018-08-03T09:17:35.366Z,10.23
2018-08-03T09:18:39.445Z,10.40
2018-08-03T09:19:43.519Z,9.73
2018-08-03T09:20:47.589Z,9.93
2018-08-03T09:21:51.756Z,11.27
2018-08-03T09:22:55.881Z,10.83
2018-08-03T09:23:59.898Z,10.30
2018-08-03T09:25:03.966Z,10.50
2018-08-03T09:26:08.067Z,9.87
2018-08-03T09:27:12.193Z,10.20
2018-08-03T09:28:16.260Z,11.10
2018-08-03T09:29:20.253Z,10.47
2018-08-03T09:30:24.301Z,9.87
2018-08-03T09:31:28.408Z,11.23
2018-08-03T09:32:32.538Z,10.67
2018-08-03T09:33:36.622Z,10.80
2018-08-03T09:34:40.791Z,10.63
2018-08-03T09:35:44.869Z,10.00
2018-08-03T09:36:48.944Z,12.43
2018-08-03T09:37:53.006Z,11.23
2018-08-03T09:38:57.080Z,11.00
2018-08-03T09:40:01.224Z,11.03
2018-08-03T09:41:05.022Z,11.30
2018-08-03T09:42:08.994Z,11.50
2018-08-03T09:43:13.108Z,13.83
2018-08-03T09:44:17.233Z,12.00
2018-08-03T09:45:21.302Z,11.20
2018-08-03T09:46:25.346Z,11.40
2018-08-03T09:47:29.441Z,10.77
2018-08-03T09:48:33.513Z,11.67
2018-08-03T09:49:37.625Z,11.37
2018-08-03T09:50:41.705Z,11.30
2018-08-03T09:51:45.812Z,11.77
2018-08-03T09:52:49.628Z,11.73
2018-08-03T09:53:53.628Z,12.37
2018-08-03T09:54:57.716Z,13.00
2018-08-03T09:56:01.912Z,12.67
2018-08-03T09:57:06.182Z,11.90
2018-08-03T09:58:10.235Z,11.50
2018-08-03T09:59:14.274Z,11.87
2018-08-03T10:00:22.584Z,11.73
2018-08-03T10:01:26.641Z,10.53
2018-08-03T10:02:30.709Z,11.17
2018-08-03T10:03:34.796Z,11.17
2018-08-03T10:04:38.919Z,11.57
2018-08-03T10:05:43.032Z,12.67
2018-08-03T10:06:47.135Z,11.47
2018-08-03T10:07:51.210Z,11.43
2018-08-03T10:08:55.262Z,11.70
2018-08-03T10:09:59.442Z,11.57
2018-08-03T10:11:03.515Z,11.10
2018-08-03T10:12:07.612Z,11.77
2018-08-03T10:13:11.665Z,14.10
2018-08-03T10:14:15.747Z,10.73
2018-08-03T10:15:19.836Z,10.40
2018-08-03T10:16:23.962Z,10.77
2018-08-03T10:17:28.037Z,11.10
2018-08-03T10:18:32.124Z,10.53
2018-08-03T10:19:36.217Z,11.20
2018-08-03T10:20:40.276Z,11.80
2018-08-03T10:21:44.378Z,11.27
2018-08-03T10:22:48.476Z,10.97
2018-08-03T10:23:52.566Z,10.40
2018-08-03T10:24:56.673Z,10.10
2018-08-03T10:26:00.667Z,10.80
2018-08-03T10:27:04.762Z,10.27
2018-08-03T10:28:08.883Z,10.73
2018-08-03T10:29:12.982Z,10.87
2018-08-03T10:30:17.025Z,11.20
2018-08-03T10:31:21.077Z,10.57
2018-08-03T10:32:25.221Z,10.50
2018-08-03T10:33:29.313Z,10.43
2018-08-03T10:34:33.407Z,9.80
2018-08-03T10:35:37.492Z,10.07
2018-08-03T10:36:41.690Z,9.60
2018-08-03T10:37:45.811Z,10.57
2018-08-03T10:38:49.940Z,9.93
2018-08-03T10:39:54.101Z,9.63
2018-08-03T10:40:58.199Z,9.47
2018-08-03T10:42:02.255Z,9.40
2018-08-03T10:43:06.511Z,9.57
2018-08-03T10:44:11.432Z,9.37
2018-08-03T10:45:15.295Z,10.23
2018-08-03T10:46:19.300Z,9.60
2018-08-03T10:47:23.333Z,10.10
2018-08-03T10:48:27.355Z,9.67
2018-08-03T10:49:31.503Z,9.23
2018-08-03T10:50:35.561Z,9.10
2018-08-03T10:51:39.667Z,8.97
2018-08-03T10:52:44.117Z,8.80
2018-08-03T10:53:48.225Z,8.60
2018-08-03T10:54:52.469Z,9.23
2018-08-03T10:55:56.506Z,8.60
2018-08-03T10:57:00.582Z,8.93
2018-08-03T10:58:04.699Z,8.63
2018-08-03T10:59:08.834Z,8.45
2018-08-03T11:00:32.607Z,8.10
2018-08-03T11:01:36.702Z,8.05
2018-08-03T11:02:43.398Z,8.43
2018-08-03T11:03:47.627Z,8.50
2018-08-03T11:04:51.761Z,8.43
2018-08-03T11:05:55.785Z,8.90
2018-08-03T11:06:59.888Z,7.87
2018-08-03T11:08:03.896Z,8.78
2018-08-03T11:09:08.843Z,8.70
2018-08-03T11:10:13.259Z,9.33
2018-08-03T11:11:17.349Z,8.50
2018-08-03T11:12:21.414Z,10.10
2018-08-03T11:13:25.480Z,8.53
2018-08-03T11:14:29.577Z,8.63
2018-08-03T11:15:33.664Z,8.20
2018-08-03T11:16:37.739Z,7.70
2018-08-03T11:17:41.820Z,8.05
2018-08-03T11:18:45.846Z,8.98
2018-08-03T11:19:49.967Z,11.03
2018-08-03T11:20:54.195Z,7.92
2018-08-03T11:23:08.592Z,7.97
2018-08-03T11:24:12.655Z,8.10
2018-08-03T11:25:16.811Z,8.18
2018-08-03T11:26:20.903Z,8.35
2018-08-03T11:27:24.987Z,8.35
2018-08-03T11:28:29.039Z,7.72
2018-08-03T11:29:33.091Z,8.33
2018-08-03T11:30:37.195Z,8.00
2018-08-03T11:31:41.378Z,8.53
2018-08-03T11:32:45.522Z,8.85
2018-08-03T11:33:49.565Z,9.70
2018-08-03T11:34:53.655Z,9.95
2018-08-03T11:35:57.792Z,8.25
2018-08-03T11:37:01.836Z,7.90
2018-08-03T11:38:05.923Z,7.40
2018-08-03T11:39:11.395Z,8.18
2018-08-03T11:40:15.481Z,8.75
2018-08-03T11:41:19.740Z,8.13
2018-08-03T11:42:23.786Z,7.67
2018-08-03T11:43:28.277Z,7.58
2018-08-03T11:44:32.337Z,7.67
2018-08-03T11:45:36.374Z,7.45
2018-08-03T11:46:40.411Z,7.37
2018-08-03T11:47:44.451Z,7.67
2018-08-03T11:48:48.234Z,7.50
2018-08-03T11:49:52.229Z,7.62
2018-08-03T11:50:56.326Z,7.50
2018-08-03T11:52:00.429Z,7.62
2018-08-03T11:53:04.567Z,8.13
2018-08-03T11:54:08.732Z,7.65
2018-08-03T11:55:12.896Z,7.45
2018-08-03T11:56:16.968Z,7.25
2018-08-03T11:57:21.017Z,8.03
2018-08-03T11:58:25.153Z,7.62
2018-08-03T11:59:29.361Z,7.67
2018-08-03T12:00:33.432Z,7.55
2018-08-03T12:01:37.504Z,7.35
2018-08-03T12:02:41.592Z,7.80
2018-08-03T12:03:45.725Z,7.95
2018-08-03T12:04:49.813Z,8.30
2018-08-03T12:05:54.116Z,7.58
2018-08-03T12:06:58.168Z,8.20
2018-08-03T12:08:02.274Z,7.35
2018-08-03T12:09:07.083Z,8.20
2018-08-03T12:10:11.171Z,7.78
2018-08-03T12:11:15.327Z,7.62
2018-08-03T12:12:19.423Z,7.85
2018-08-03T12:13:23.491Z,7.65
2018-08-03T12:14:27.585Z,7.75
2018-08-03T12:15:31.551Z,7.92
2018-08-03T12:16:35.643Z,7.95
2018-08-03T12:17:39.711Z,7.17
2018-08-03T12:18:43.879Z,7.35
2018-08-03T12:19:48.025Z,6.95
2018-08-03T12:20:52.044Z,6.12
2018-08-03T12:21:56.074Z,6.80
2018-08-03T12:23:00.171Z,6.75
2018-08-03T12:24:04.299Z,7.05
2018-08-03T12:25:08.439Z,6.85
2018-08-03T12:26:12.468Z,7.17
2018-08-03T12:27:16.505Z,7.10
2018-08-03T12:28:23.534Z,6.87
2018-08-03T12:29:27.624Z,7.42
2018-08-03T12:30:31.694Z,6.97
2018-08-03T12:31:35.924Z,6.80
2018-08-03T12:32:39.939Z,6.45
2018-08-03T12:33:43.983Z,7.22
2018-08-03T12:34:48.133Z,6.65
2018-08-03T12:35:52.266Z,6.92
2018-08-03T12:36:56.328Z,6.62
2018-08-03T12:38:00.688Z,6.22
2018-08-03T12:39:07.602Z,6.37
2018-08-03T12:40:11.691Z,6.97
2018-08-03T12:41:15.883Z,7.12
2018-08-03T12:42:20.070Z,7.00
2018-08-03T12:43:24.190Z,6.78
2018-08-03T12:44:28.241Z,6.50
2018-08-03T12:45:34.146Z,6.80
2018-08-03T12:46:36.539Z,6.55
2018-08-03T12:47:40.638Z,6.58
2018-08-03T12:48:44.741Z,6.78
2018-08-03T12:49:48.887Z,6.62
2018-08-03T12:50:52.937Z,6.58
2018-08-03T12:51:57.067Z,7.10
2018-08-03T12:53:01.228Z,6.92
2018-08-03T12:54:05.372Z,6.10
2018-08-03T12:55:09.616Z,6.40
2018-08-03T12:56:13.641Z,6.85
2018-08-03T12:57:17.832Z,6.65
2018-08-03T12:58:21.633Z,7.08
2018-08-03T12:59:25.657Z,7.75
2018-08-03T13:00:29.421Z,6.67
2018-08-03T13:01:33.530Z,6.72
2018-08-03T13:02:37.823Z,6.75
2018-08-03T13:03:41.848Z,6.85
2018-08-03T13:04:45.893Z,7.10
2018-08-03T13:05:49.988Z,7.08
2018-08-03T13:06:54.073Z,7.08
2018-08-03T13:07:58.327Z,6.15
2018-08-03T13:09:02.245Z,6.60
2018-08-03T13:10:06.394Z,6.50
2018-08-03T13:11:10.448Z,6.60
2018-08-03T13:12:14.530Z,7.20
2018-08-03T13:13:18.611Z,6.80
2018-08-03T13:14:22.710Z,6.80
2018-08-03T13:15:26.751Z,6.62
2018-08-03T13:16:30.807Z,6.62
2018-08-03T13:17:34.870Z,6.80
2018-08-03T13:18:39.020Z,6.62
2018-08-03T13:19:43.062Z,6.37
2018-08-03T13:20:47.303Z,6.58
2018-08-03T13:21:51.378Z,6.20
2018-08-03T13:22:59.539Z,6.17
2018-08-03T13:24:03.924Z,6.40
2018-08-03T13:25:08.036Z,6.33
2018-08-03T13:26:12.069Z,6.47
2018-08-03T13:27:16.201Z,5.72
2018-08-03T13:28:20.318Z,6.22
2018-08-03T13:29:24.401Z,5.97
2018-08-03T13:30:28.505Z,6.25
2018-08-03T13:31:32.753Z,6.15
2018-08-03T13:32:36.951Z,5.92
2018-08-03T13:33:40.980Z,6.45
2018-08-03T13:34:45.183Z,6.40
2018-08-03T13:35:49.252Z,7.15
2018-08-03T13:36:53.367Z,6.92
2018-08-03T13:37:57.593Z,6.28
2018-08-03T13:39:01.662Z,6.85
2018-08-03T13:40:05.792Z,6.67
2018-08-03T13:41:09.828Z,6.85
2018-08-03T13:42:13.942Z,6.50
2018-08-03T13:43:18.018Z,6.58
2018-08-03T13:44:21.997Z,6.53
2018-08-03T13:45:26.045Z,6.40
2018-08-03T13:46:30.135Z,6.22
2018-08-03T13:47:34.301Z,6.62
2018-08-03T13:48:38.340Z,7.60
2018-08-03T13:49:42.408Z,6.42
2018-08-03T13:50:46.498Z,7.00
2018-08-03T13:51:50.593Z,6.12
2018-08-03T13:52:55.049Z,6.92
2018-08-03T13:53:59.762Z,6.10
2018-08-03T13:55:04.107Z,6.72
2018-08-03T13:56:08.623Z,6.85
2018-08-03T13:57:12.718Z,6.55
2018-08-03T13:58:16.811Z,6.30
2018-08-03T13:59:20.823Z,6.78
2018-08-03T14:00:24.936Z,5.92
2018-08-03T14:01:36.940Z,6.50
2018-08-03T14:02:41.099Z,6.12
2018-08-03T14:03:45.293Z,5.80
2018-08-03T14:04:49.425Z,5.92
2018-08-03T14:05:53.423Z,6.30
2018-08-03T14:06:57.485Z,6.03
2018-08-03T14:08:01.560Z,5.33
2018-08-03T14:09:06.905Z,6.87
2018-08-03T14:10:11.250Z,6.10
2018-08-03T14:11:16.262Z,5.62
2018-08-03T14:12:20.571Z,6.28